Time;durP1;ratioP1;P1;durP2;ratioP2;P2;SDS_P1;SDS_P2;PMS_P1;PMS_P2;Temp;Humidity;BMP_temperature;BMP_pressure;BME280_temperature;BME280_humidity;BME280_pressure;Samples;Min_cycle;Max_cycle;Signal;HPM_P1;HPM_P2
2022/12/21 00:00:09;;;;;;;0.20;0.20;;;;;;;;;;1816116;78;26275;-38
2022/12/21 00:02:36;;;;;;;0.20;0.20;;;;;;;;;;1813389;78;26274;-33
2022/12/21 00:05:03;;;;;;;1.95;0.20;;;;;;;;;;1841325;78;26733;-39
2022/12/21 00:07:31;;;;;;;0.30;0.30;;;;;;;;;;1813137;78;26265;-39
2022/12/21 00:09:59;;;;;;;0.20;0.20;;;;;;;;;;1827886;78;26285;-35
2022/12/21 00:12:26;;;;;;;0.10;0.10;;;;;;;;;;1838146;78;26385;-32
2022/12/21 00:14:53;;;;;;;0.45;0.25;;;;;;;;;;1839101;77;26546;-40
2022/12/21 00:17:20;;;;;;;0.20;0.20;;;;;;;;;;1794377;79;26342;-35
2022/12/21 00:19:48;;;;;;;0.25;0.25;;;;;;;;;;1793538;78;26296;-34
2022/12/21 00:22:15;;;;;;;0.10;0.10;;;;;;;;;;1819648;77;26391;-34
2022/12/21 00:24:42;;;;;;;0.15;0.15;;;;;;;;;;1818404;78;26318;-38
2022/12/21 00:27:09;;;;;;;0.20;0.20;;;;;;;;;;1826175;78;26292;-38
2022/12/21 00:29:37;;;;;;;0.10;0.10;;;;;;;;;;1821822;78;26658;-36
2022/12/21 00:32:04;;;;;;;0.20;0.20;;;;;;;;;;1791880;79;26765;-37
2022/12/21 00:34:31;;;;;;;0.30;0.30;;;;;;;;;;1798556;79;26309;-42
2022/12/21 00:36:59;;;;;;;0.30;0.30;;;;;;;;;;1808850;78;26341;-39
2022/12/21 00:39:26;;;;;;;0.10;0.10;;;;;;;;;;1809651;78;26274;-35
2022/12/21 00:41:53;;;;;;;0.30;0.30;;;;;;;;;;1810515;78;26286;-35
2022/12/21 00:44:20;;;;;;;0.23;0.23;;;;;;;;;;1803283;78;26267;-37
2022/12/21 00:46:48;;;;;;;0.25;0.20;;;;;;;;;;1823324;77;26279;-36
2022/12/21 00:49:15;;;;;;;0.20;0.20;;;;;;;;;;1811285;78;26604;-34
2022/12/21 00:51:42;;;;;;;0.20;0.20;;;;;;;;;;1813415;78;26282;-36
2022/12/21 00:54:09;;;;;;;0.20;0.20;;;;;;;;;;1822230;78;26274;-43
2022/12/21 00:56:37;;;;;;;0.10;0.10;;;;;;;;;;1811522;78;26287;-40
2022/12/21 00:59:04;;;;;;;0.13;0.13;;;;;;;;;;1823087;78;26327;-37
2022/12/21 01:01:32;;;;;;;11.08;0.37;;;;;;;;;;1820835;78;26305;-35
2022/12/21 01:04:00;;;;;;;0.10;0.10;;;;;;;;;;1791399;79;25416;-39
2022/12/21 01:06:29;;;;;;;0.42;0.20;;;;;;;;;;1805692;78;26268;-38
2022/12/21 01:08:56;;;;;;;0.10;0.10;;;;;;;;;;1834236;78;26265;-39
2022/12/21 01:11:25;;;;;;;0.10;0.10;;;;;;;;;;1814383;78;26724;-39
2022/12/21 01:13:54;;;;;;;0.10;0.10;;;;;;;;;;1808411;79;26811;-40
2022/12/21 01:16:25;;;;;;;0.20;0.20;;;;;;;;;;1807151;78;26287;-38
2022/12/21 01:18:52;;;;;;;0.20;0.20;;;;;;;;;;1799611;79;26247;-35
2022/12/21 01:21:21;;;;;;;0.20;0.20;;;;;;;;;;1838422;77;26390;-35
2022/12/21 01:23:49;;;;;;;0.20;0.20;;;;;;;;;;1816258;78;26969;-39
2022/12/21 01:26:17;;;;;;;0.20;0.20;;;;;;;;;;1794352;79;26337;-37
2022/12/21 01:28:46;;;;;;;0.20;0.20;;;;;;;;;;1843195;77;26307;-40
2022/12/21 01:31:13;;;;;;;0.20;0.20;;;;;;;;;;1798509;79;26712;-39
2022/12/21 01:33:41;;;;;;;0.20;0.20;;;;;;;;;;1802079;79;26334;-36
2022/12/21 01:36:11;;;;;;;1.72;0.20;;;;;;;;;;1814845;78;26253;-39
2022/12/21 01:38:41;;;;;;;0.20;0.10;;;;;;;;;;1809245;79;26314;-36
2022/12/21 01:41:10;;;;;;;0.20;0.20;;;;;;;;;;1840934;78;26346;-36
2022/12/21 01:43:41;;;;;;;0.35;0.30;;;;;;;;;;1824276;78;26716;-35
2022/12/21 01:46:10;;;;;;;0.10;0.10;;;;;;;;;;1807105;79;26307;-41
2022/12/21 01:48:39;;;;;;;0.30;0.30;;;;;;;;;;1815488;78;26271;-35
2022/12/21 01:51:07;;;;;;;0.20;0.20;;;;;;;;;;1809020;79;26281;-37
2022/12/21 01:53:36;;;;;;;0.62;0.20;;;;;;;;;;1826989;78;26693;-39
2022/12/21 01:56:05;;;;;;;0.20;0.20;;;;;;;;;;1840235;78;26330;-43
2022/12/21 01:58:33;;;;;;;0.15;0.15;;;;;;;;;;1805809;79;26327;-37
2022/12/21 02:01:01;;;;;;;0.10;0.10;;;;;;;;;;1813028;78;26731;-37
2022/12/21 02:03:30;;;;;;;0.20;0.20;;;;;;;;;;1801703;79;26260;-37
2022/12/21 02:05:59;;;;;;;0.55;0.20;;;;;;;;;;1840613;78;26322;-37
2022/12/21 02:08:27;;;;;;;1.10;0.20;;;;;;;;;;1800629;79;26347;-42
2022/12/21 02:10:55;;;;;;;0.10;0.10;;;;;;;;;;1811261;78;26256;-38
2022/12/21 02:13:22;;;;;;;0.20;0.20;;;;;;;;;;1807986;78;26357;-35
2022/12/21 02:15:51;;;;;;;0.20;0.20;;;;;;;;;;1809682;79;26267;-36
2022/12/21 02:18:26;;;;;;;0.20;0.20;;;;;;;;;;1837195;78;26637;-35
2022/12/21 02:20:55;;;;;;;0.05;0.05;;;;;;;;;;1813979;78;26283;-35
2022/12/21 02:23:26;;;;;;;0.53;0.10;;;;;;;;;;1807238;78;26280;-36
2022/12/21 02:25:55;;;;;;;0.20;0.20;;;;;;;;;;1834059;78;26602;-36
2022/12/21 02:28:24;;;;;;;0.13;0.13;;;;;;;;;;1811833;78;26252;-36
2022/12/21 02:31:09;;;;;;;0.25;0.17;;;;;;;;;;1813553;78;26282;-35
2022/12/21 02:33:44;;;;;;;0.20;0.20;;;;;;;;;;1812533;78;26349;-39
2022/12/21 02:36:13;;;;;;;0.20;0.20;;;;;;;;;;1813191;78;26354;-35
2022/12/21 02:38:42;;;;;;;0.20;0.20;;;;;;;;;;1815805;78;26302;-36
2022/12/21 02:41:14;;;;;;;0.20;0.20;;;;;;;;;;1816202;78;26290;-36
2022/12/21 02:44:15;;;;;;;0.20;0.20;;;;;;;;;;1815557;78;26845;-36
2022/12/21 02:46:44;;;;;;;0.42;0.17;;;;;;;;;;1813477;78;26286;-35
2022/12/21 02:49:13;;;;;;;0.10;0.10;;;;;;;;;;1842201;76;26268;-37
2022/12/21 02:51:43;;;;;;;0.10;0.10;;;;;;;;;;1812485;78;26270;-36
2022/12/21 02:54:10;;;;;;;0.10;0.10;;;;;;;;;;1811065;78;26305;-41
2022/12/21 02:56:37;;;;;;;0.68;0.10;;;;;;;;;;1809405;78;26739;-39
2022/12/21 02:59:07;;;;;;;0.10;0.10;;;;;;;;;;1818245;78;27502;-38
2022/12/21 03:01:36;;;;;;;0.20;0.20;;;;;;;;;;1806847;78;26814;-35
2022/12/21 03:04:07;;;;;;;0.20;0.20;;;;;;;;;;1811531;78;26274;-35
2022/12/21 03:06:40;;;;;;;0.13;0.13;;;;;;;;;;1806262;79;26263;-36
2022/12/21 03:09:11;;;;;;;0.20;0.20;;;;;;;;;;1833908;78;26325;-36
2022/12/21 03:11:57;;;;;;;0.20;0.20;;;;;;;;;;1835463;78;26714;-35
2022/12/21 03:14:41;;;;;;;0.10;0.10;;;;;;;;;;1807940;79;26519;-35
2022/12/21 03:17:25;;;;;;;0.17;0.17;;;;;;;;;;1803420;79;26871;-41
2022/12/21 03:20:00;;;;;;;0.10;0.10;;;;;;;;;;1801360;79;26264;-39
2022/12/21 03:22:31;;;;;;;0.20;0.20;;;;;;;;;;1803816;79;26365;-39
2022/12/21 03:25:18;;;;;;;0.28;0.20;;;;;;;;;;1803772;79;27539;-38
2022/12/21 03:27:47;;;;;;;0.10;0.10;;;;;;;;;;1838305;78;26320;-36
2022/12/21 03:30:16;;;;;;;1.07;0.10;;;;;;;;;;1789286;79;26310;-36
2022/12/21 03:32:45;;;;;;;0.10;0.10;;;;;;;;;;1809939;78;26227;-37
2022/12/21 03:35:14;;;;;;;0.10;0.10;;;;;;;;;;1824089;78;26292;-36
2022/12/21 03:37:42;;;;;;;0.15;0.15;;;;;;;;;;1810928;78;26716;-38
2022/12/21 03:40:10;;;;;;;0.17;0.17;;;;;;;;;;1843463;77;26248;-39
2022/12/21 03:42:40;;;;;;;0.10;0.10;;;;;;;;;;1841891;77;26265;-37
2022/12/21 03:45:09;;;;;;;0.13;0.13;;;;;;;;;;1800893;78;26280;-38
2022/12/21 03:47:38;;;;;;;0.15;0.15;;;;;;;;;;1811018;78;26704;-39
2022/12/21 03:50:07;;;;;;;0.20;0.20;;;;;;;;;;1825437;78;26758;-36
2022/12/21 03:52:35;;;;;;;0.10;0.10;;;;;;;;;;1828928;78;26722;-37
2022/12/21 03:55:04;;;;;;;0.10;0.10;;;;;;;;;;1812987;78;26291;-39
2022/12/21 03:57:32;;;;;;;0.33;0.20;;;;;;;;;;1817319;78;26343;-36
2022/12/21 04:00:00;;;;;;;0.15;0.15;;;;;;;;;;1824959;78;26257;-37
2022/12/21 04:02:35;;;;;;;0.20;0.20;;;;;;;;;;1802543;78;26556;-40
2022/12/21 04:05:07;;;;;;;0.33;0.10;;;;;;;;;;1811710;78;26276;-36
2022/12/21 04:07:35;;;;;;;1.30;0.10;;;;;;;;;;1804380;78;26756;-36
2022/12/21 04:10:04;;;;;;;0.10;0.10;;;;;;;;;;1809720;79;26398;-36
2022/12/21 04:12:37;;;;;;;0.20;0.20;;;;;;;;;;1829315;78;26268;-39
2022/12/21 04:15:05;;;;;;;0.10;0.10;;;;;;;;;;1841217;78;26346;-38
2022/12/21 04:17:33;;;;;;;1.17;0.20;;;;;;;;;;1815658;78;26256;-39
2022/12/21 04:20:02;;;;;;;0.10;0.10;;;;;;;;;;1796703;79;26310;-39
2022/12/21 04:28:10;;;;;;;0.10;0.10;;;;;;;;;;1802135;79;26899;-38
2022/12/21 04:30:45;;;;;;;0.10;0.10;;;;;;;;;;1773304;79;26278;-36
2022/12/21 04:33:14;;;;;;;0.20;0.20;;;;;;;;;;1771929;79;26295;-37
2022/12/21 04:37:30;;;;;;;0.20;0.20;;;;;;;;;;1786824;79;26837;-39
2022/12/21 04:38:10;;;;;;;0.10;0.10;;;;;;;;;;1778352;80;26396;-41
2022/12/21 04:40:38;;;;;;;0.15;0.15;;;;;;;;;;1816252;79;26255;-38
2022/12/21 04:43:05;;;;;;;0.30;0.10;;;;;;;;;;1816041;79;26275;-38
2022/12/21 04:45:32;;;;;;;0.10;0.10;;;;;;;;;;1792490;79;26297;-35
2022/12/21 04:47:59;;;;;;;0.23;0.15;;;;;;;;;;1784807;80;26263;-36
2022/12/21 04:50:27;;;;;;;0.10;0.10;;;;;;;;;;1769446;80;26266;-36
2022/12/21 04:52:54;;;;;;;0.10;0.10;;;;;;;;;;1816223;79;26345;-37
2022/12/21 04:55:21;;;;;;;0.08;0.08;;;;;;;;;;1813760;79;26421;-36
2022/12/21 04:57:48;;;;;;;0.10;0.10;;;;;;;;;;1816033;79;26212;-37
2022/12/21 05:00:16;;;;;;;0.10;0.10;;;;;;;;;;1815735;79;26275;-38
2022/12/21 05:02:43;;;;;;;0.20;0.20;;;;;;;;;;1815880;79;26223;-36
2022/12/21 05:05:11;;;;;;;0.20;0.20;;;;;;;;;;1815720;79;26711;-38
2022/12/21 05:07:38;;;;;;;0.20;0.20;;;;;;;;;;1816279;79;26742;-36
2022/12/21 05:10:06;;;;;;;0.10;0.10;;;;;;;;;;1815633;79;26699;-41
2022/12/21 05:12:33;;;;;;;0.10;0.10;;;;;;;;;;1806313;79;26362;-39
2022/12/21 05:15:00;;;;;;;0.10;0.10;;;;;;;;;;1816313;79;26208;-37
2022/12/21 05:17:27;;;;;;;0.10;0.10;;;;;;;;;;1822240;77;26263;-35
2022/12/21 05:19:55;;;;;;;0.05;0.05;;;;;;;;;;1816463;78;26385;-38
2022/12/21 05:22:22;;;;;;;0.10;0.10;;;;;;;;;;1814737;78;26345;-37
2022/12/21 05:24:49;;;;;;;0.20;0.20;;;;;;;;;;1783841;80;26273;-39
2022/12/21 05:27:16;;;;;;;0.60;0.17;;;;;;;;;;1783700;80;26377;-37
2022/12/21 05:29:44;;;;;;;0.17;0.17;;;;;;;;;;1769521;80;26301;-36
2022/12/21 05:32:11;;;;;;;0.10;0.10;;;;;;;;;;1795284;79;26727;-39
2022/12/21 05:34:38;;;;;;;0.20;0.20;;;;;;;;;;1784058;80;26730;-39
2022/12/21 05:37:06;;;;;;;0.17;0.17;;;;;;;;;;1783965;80;26797;-37
2022/12/21 05:39:33;;;;;;;0.13;0.13;;;;;;;;;;1773647;80;26340;-38
2022/12/21 05:42:01;;;;;;;0.65;0.10;;;;;;;;;;1807596;79;26343;-41
2022/12/21 05:44:28;;;;;;;0.20;0.20;;;;;;;;;;1768077;80;26822;-35
2022/12/21 05:46:56;;;;;;;0.13;0.10;;;;;;;;;;1772238;80;27293;-35
2022/12/21 05:49:23;;;;;;;0.20;0.20;;;;;;;;;;1772777;80;26274;-36
2022/12/21 05:51:50;;;;;;;0.20;0.20;;;;;;;;;;1784594;79;26223;-36
2022/12/21 05:54:17;;;;;;;0.47;0.37;;;;;;;;;;1766370;80;26344;-35
2022/12/21 05:56:45;;;;;;;0.98;0.30;;;;;;;;;;1794546;80;26213;-37
2022/12/21 05:59:12;;;;;;;0.30;0.30;;;;;;;;;;1776156;79;26382;-36
2022/12/21 06:01:40;;;;;;;0.40;0.40;;;;;;;;;;1771109;80;26349;-36
2022/12/21 06:04:07;;;;;;;1.25;0.47;;;;;;;;;;1783660;80;26285;-39
2022/12/21 06:06:34;;;;;;;1.25;0.50;;;;;;;;;;1783177;80;26270;-35
2022/12/21 06:09:01;;;;;;;0.60;0.50;;;;;;;;;;1783847;80;26279;-38
2022/12/21 06:11:29;;;;;;;2.77;0.35;;;;;;;;;;1784525;79;26259;-35
2022/12/21 06:13:56;;;;;;;0.90;0.53;;;;;;;;;;1792357;79;26283;-37
2022/12/21 06:16:24;;;;;;;1.65;0.60;;;;;;;;;;1785318;79;26390;-38
2022/12/21 06:18:52;;;;;;;0.78;0.50;;;;;;;;;;1784414;79;26773;-37
2022/12/21 06:21:20;;;;;;;2.17;0.50;;;;;;;;;;1783862;80;26377;-36
2022/12/21 06:23:48;;;;;;;1.82;0.70;;;;;;;;;;1808793;78;26311;-35
2022/12/21 06:26:16;;;;;;;1.35;0.70;;;;;;;;;;1806485;79;26275;-36
2022/12/21 06:28:45;;;;;;;0.80;0.68;;;;;;;;;;1804453;79;26222;-45
2022/12/21 06:31:13;;;;;;;4.00;0.82;;;;;;;;;;1791090;79;26330;-41
2022/12/21 06:33:41;;;;;;;1.40;0.78;;;;;;;;;;1811837;78;27407;-39
2022/12/21 06:36:09;;;;;;;3.15;0.90;;;;;;;;;;1811240;78;26352;-38
2022/12/21 06:38:36;;;;;;;1.45;0.80;;;;;;;;;;1795973;79;26733;-36
2022/12/21 06:41:05;;;;;;;1.80;0.70;;;;;;;;;;1809369;79;26350;-38
2022/12/21 06:43:33;;;;;;;2.50;0.90;;;;;;;;;;1829583;77;26310;-36
2022/12/21 06:46:01;;;;;;;2.47;0.95;;;;;;;;;;1799870;79;26772;-39
2022/12/21 06:48:30;;;;;;;3.65;1.10;;;;;;;;;;1810734;78;26334;-37
2022/12/21 06:50:58;;;;;;;1.77;1.07;;;;;;;;;;1810898;78;26208;-38
2022/12/21 06:53:27;;;;;;;1.70;1.35;;;;;;;;;;1827160;78;26989;-39
2022/12/21 06:55:58;;;;;;;1.62;1.50;;;;;;;;;;1799537;78;26816;-35
2022/12/21 06:58:26;;;;;;;1.35;1.30;;;;;;;;;;1808295;78;26346;-39
2022/12/21 07:00:53;;;;;;;2.02;1.82;;;;;;;;;;1815613;77;27546;-38
2022/12/21 07:03:21;;;;;;;4.10;2.70;;;;;;;;;;1819787;78;26335;-38
2022/12/21 07:05:49;;;;;;;9.68;4.40;;;;;;;;;;1813643;78;26759;-40
2022/12/21 07:08:17;;;;;;;11.90;5.67;;;;;;;;;;1803429;79;26307;-40
2022/12/21 07:10:44;;;;;;;18.77;7.58;;;;;;;;;;1801322;78;26333;-37
2022/12/21 07:13:12;;;;;;;17.42;8.45;;;;;;;;;;1805353;78;26236;-36
2022/12/21 07:15:39;;;;;;;23.20;9.80;;;;;;;;;;1840785;78;26335;-36
2022/12/21 07:18:06;;;;;;;21.25;9.50;;;;;;;;;;1811308;78;26364;-40
2022/12/21 07:20:34;;;;;;;22.37;9.43;;;;;;;;;;1808086;79;26307;-39
2022/12/21 07:23:01;;;;;;;22.30;9.28;;;;;;;;;;1836358;78;26523;-39
2022/12/21 07:25:28;;;;;;;21.02;9.35;;;;;;;;;;1797800;78;26335;-36
2022/12/21 07:27:56;;;;;;;23.18;10.18;;;;;;;;;;1813005;79;26342;-37
2022/12/21 07:30:24;;;;;;;19.25;8.65;;;;;;;;;;1812586;79;26269;-40
2022/12/21 07:32:55;;;;;;;18.27;8.60;;;;;;;;;;1807258;79;26342;-36
2022/12/21 07:35:22;;;;;;;16.52;8.35;;;;;;;;;;1801068;78;26286;-37
2022/12/21 07:37:50;;;;;;;19.52;8.23;;;;;;;;;;1784877;80;26329;-38
2022/12/21 07:40:18;;;;;;;14.93;7.42;;;;;;;;;;1775771;79;26311;-38
2022/12/21 07:42:46;;;;;;;14.78;6.87;;;;;;;;;;1803418;79;26751;-38
2022/12/21 07:45:14;;;;;;;15.40;6.37;;;;;;;;;;1776624;79;26771;-35
2022/12/21 07:47:41;;;;;;;13.40;6.15;;;;;;;;;;1816638;77;26349;-37
2022/12/21 07:50:09;;;;;;;11.95;5.97;;;;;;;;;;1783135;79;26407;-40
2022/12/21 07:52:36;;;;;;;10.10;5.30;;;;;;;;;;1814142;77;26826;-35
2022/12/21 07:55:03;;;;;;;10.45;5.37;;;;;;;;;;1812213;78;26259;-35
2022/12/21 07:57:31;;;;;;;11.08;5.30;;;;;;;;;;1776270;79;26382;-36
2022/12/21 07:59:58;;;;;;;7.72;4.37;;;;;;;;;;1778239;79;25413;-37
2022/12/21 08:02:25;;;;;;;11.05;4.30;;;;;;;;;;1804724;79;26423;-40
2022/12/21 08:04:53;;;;;;;8.40;4.00;;;;;;;;;;1795600;79;26636;-39
2022/12/21 08:07:20;;;;;;;7.50;3.60;;;;;;;;;;1785712;79;28446;-37
2022/12/21 08:09:47;;;;;;;8.33;2.70;;;;;;;;;;1809539;77;26271;-43
2022/12/21 08:12:14;;;;;;;5.62;2.52;;;;;;;;;;1771915;80;26330;-36
2022/12/21 08:14:42;;;;;;;4.50;2.60;;;;;;;;;;1797991;78;26841;-43
2022/12/21 08:17:09;;;;;;;4.67;2.90;;;;;;;;;;1791784;79;26342;-35
2022/12/21 08:19:36;;;;;;;3.40;2.30;;;;;;;;;;1809740;77;26340;-42
2022/12/21 08:22:04;;;;;;;4.45;2.25;;;;;;;;;;1775235;79;26334;-40
2022/12/21 08:24:31;;;;;;;2.80;1.90;;;;;;;;;;1777272;77;26388;-36
2022/12/21 08:26:58;;;;;;;4.67;1.92;;;;;;;;;;1797976;78;26292;-37
2022/12/21 08:29:26;;;;;;;2.02;1.80;;;;;;;;;;1820292;77;26255;-41
2022/12/21 08:31:53;;;;;;;2.55;1.80;;;;;;;;;;1819176;78;26704;-37
2022/12/21 08:34:20;;;;;;;2.58;1.85;;;;;;;;;;1807369;78;26794;-35
2022/12/21 08:36:48;;;;;;;1.67;1.52;;;;;;;;;;1815236;78;26299;-37
2022/12/21 08:39:15;;;;;;;1.55;1.45;;;;;;;;;;1785834;79;26359;-38
2022/12/21 08:41:42;;;;;;;3.87;1.60;;;;;;;;;;1796461;78;26295;-43
2022/12/21 08:44:10;;;;;;;3.02;1.40;;;;;;;;;;1799397;79;26290;-37
2022/12/21 08:46:37;;;;;;;1.30;1.12;;;;;;;;;;1794387;79;26917;-40
2022/12/21 08:49:04;;;;;;;1.70;1.32;;;;;;;;;;1784201;79;26765;-36
2022/12/21 08:51:31;;;;;;;2.52;1.12;;;;;;;;;;1799524;78;26608;-40
2022/12/21 08:53:59;;;;;;;1.47;1.37;;;;;;;;;;1802964;78;26330;-41
2022/12/21 08:56:26;;;;;;;2.95;1.37;;;;;;;;;;1798553;78;26296;-34
2022/12/21 08:58:54;;;;;;;1.33;1.23;;;;;;;;;;1818177;78;26269;-35
2022/12/21 09:01:22;;;;;;;1.42;1.27;;;;;;;;;;1803527;78;26318;-36
2022/12/21 09:03:49;;;;;;;4.20;1.30;;;;;;;;;;1805057;78;26273;-35
2022/12/21 09:06:17;;;;;;;1.85;1.20;;;;;;;;;;1804866;77;26296;-37
2022/12/21 09:08:44;;;;;;;1.35;1.20;;;;;;;;;;1801849;78;27570;-46
2022/12/21 09:11:12;;;;;;;1.30;1.20;;;;;;;;;;1811344;78;26261;-37
2022/12/21 09:13:41;;;;;;;2.90;1.17;;;;;;;;;;1796676;79;26359;-41
2022/12/21 09:16:15;;;;;;;1.72;1.22;;;;;;;;;;1806906;78;26322;-36
2022/12/21 09:18:43;;;;;;;0.95;0.95;;;;;;;;;;1783131;79;26313;-36
2022/12/21 09:21:11;;;;;;;1.98;1.10;;;;;;;;;;1783584;79;26809;-38
2022/12/21 09:23:39;;;;;;;2.17;0.82;;;;;;;;;;1784662;79;26375;-41
2022/12/21 09:26:07;;;;;;;1.05;1.05;;;;;;;;;;1776231;79;26359;-40
2022/12/21 09:28:35;;;;;;;1.45;0.90;;;;;;;;;;1784688;80;26290;-35
2022/12/21 09:31:10;;;;;;;1.20;1.10;;;;;;;;;;1782030;79;26272;-40
2022/12/21 09:33:38;;;;;;;1.57;0.80;;;;;;;;;;1795125;79;26357;-38
2022/12/21 09:36:06;;;;;;;0.90;0.90;;;;;;;;;;1807865;78;26672;-40
2022/12/21 09:38:34;;;;;;;0.90;0.90;;;;;;;;;;1797262;79;26276;-38
2022/12/21 09:41:08;;;;;;;1.05;0.80;;;;;;;;;;1814695;78;28217;-36
2022/12/21 09:43:40;;;;;;;1.32;0.78;;;;;;;;;;1825073;78;26297;-38
2022/12/21 09:46:09;;;;;;;0.80;0.80;;;;;;;;;;1807210;78;26804;-42
2022/12/21 09:48:43;;;;;;;1.15;0.70;;;;;;;;;;1790948;80;27077;-37
2022/12/21 09:51:18;;;;;;;0.70;0.70;;;;;;;;;;1798807;78;26749;-36
2022/12/21 09:53:49;;;;;;;1.85;0.90;;;;;;;;;;1789908;78;26387;-40
2022/12/21 09:56:18;;;;;;;0.70;0.70;;;;;;;;;;1790480;78;26276;-35
2022/12/21 09:58:51;;;;;;;1.30;0.70;;;;;;;;;;1822288;78;26660;-40
2022/12/21 10:01:29;;;;;;;0.65;0.65;;;;;;;;;;1801752;78;26301;-37
2022/12/21 10:04:14;;;;;;;0.82;0.60;;;;;;;;;;1794777;78;26343;-37
2022/12/21 10:06:46;;;;;;;0.70;0.70;;;;;;;;;;1790719;79;26288;-42
2022/12/21 10:09:18;;;;;;;1.30;0.50;;;;;;;;;;1797269;80;26345;-40
2022/12/21 10:11:46;;;;;;;1.10;0.75;;;;;;;;;;1816672;78;26241;-36
2022/12/21 10:14:22;;;;;;;0.42;0.42;;;;;;;;;;1817398;78;26273;-42
2022/12/21 10:16:53;;;;;;;0.62;0.62;;;;;;;;;;1777111;80;26435;-38
2022/12/21 10:19:22;;;;;;;0.40;0.40;;;;;;;;;;1770363;80;26366;-42
2022/12/21 10:21:51;;;;;;;0.55;0.47;;;;;;;;;;1786412;79;26297;-44
2022/12/21 10:24:26;;;;;;;0.37;0.37;;;;;;;;;;1788593;79;26344;-35
2022/12/21 10:26:54;;;;;;;0.60;0.60;;;;;;;;;;1794957;79;26289;-35
2022/12/21 10:29:24;;;;;;;0.40;0.40;;;;;;;;;;1788073;79;26699;-38
2022/12/21 10:31:52;;;;;;;0.40;0.40;;;;;;;;;;1788806;79;26305;-39
2022/12/21 10:34:27;;;;;;;0.40;0.40;;;;;;;;;;1786036;79;26337;-40
2022/12/21 10:36:56;;;;;;;0.40;0.40;;;;;;;;;;1787607;79;26280;-37
2022/12/21 10:39:23;;;;;;;0.42;0.40;;;;;;;;;;1785533;79;26412;-35
2022/12/21 10:41:55;;;;;;;1.37;0.53;;;;;;;;;;1806432;78;26269;-38
2022/12/21 10:44:22;;;;;;;0.40;0.40;;;;;;;;;;1795415;79;27126;-42
2022/12/21 10:46:49;;;;;;;0.40;0.40;;;;;;;;;;1788161;79;26762;-35
2022/12/21 10:49:21;;;;;;;0.50;0.47;;;;;;;;;;1789999;79;26838;-39
2022/12/21 10:51:48;;;;;;;0.35;0.35;;;;;;;;;;1810902;78;26335;-39
2022/12/21 10:54:17;;;;;;;1.37;0.40;;;;;;;;;;1788688;80;26273;-36
2022/12/21 10:56:46;;;;;;;1.15;0.45;;;;;;;;;;1774006;78;28951;-42
2022/12/21 10:59:15;;;;;;;0.40;0.40;;;;;;;;;;1805775;78;26787;-38
2022/12/21 11:01:42;;;;;;;1.17;0.20;;;;;;;;;;1790021;79;26369;-36
2022/12/21 11:04:17;;;;;;;0.30;0.30;;;;;;;;;;1790029;79;26378;-39
2022/12/21 11:07:01;;;;;;;0.30;0.30;;;;;;;;;;1782079;80;26776;-41
2022/12/21 11:09:36;;;;;;;0.47;0.40;;;;;;;;;;1787851;78;26293;-43
2022/12/21 11:12:14;;;;;;;0.47;0.40;;;;;;;;;;1778309;80;26408;-41
2022/12/21 11:14:41;;;;;;;0.55;0.55;;;;;;;;;;1795562;78;26317;-36
2022/12/21 11:17:26;;;;;;;0.40;0.40;;;;;;;;;;1776685;80;26943;-35
2022/12/21 11:20:01;;;;;;;0.45;0.45;;;;;;;;;;1785202;78;28109;-43
2022/12/21 11:22:29;;;;;;;0.40;0.40;;;;;;;;;;1808852;78;27503;-39
2022/12/21 11:24:57;;;;;;;0.23;0.23;;;;;;;;;;1790823;78;26313;-39
2022/12/21 11:27:26;;;;;;;0.35;0.30;;;;;;;;;;1816529;77;26291;-37
2022/12/21 11:30:07;;;;;;;0.45;0.45;;;;;;;;;;1798306;78;26586;-35
2022/12/21 11:32:36;;;;;;;0.40;0.40;;;;;;;;;;1814412;78;26516;-41
2022/12/21 11:35:05;;;;;;;0.40;0.40;;;;;;;;;;1818107;78;26256;-42
2022/12/21 11:37:34;;;;;;;0.62;0.30;;;;;;;;;;1799682;78;26921;-42
2022/12/21 11:40:08;;;;;;;0.60;0.60;;;;;;;;;;1787993;79;27643;-39
2022/12/21 11:42:36;;;;;;;1.52;0.55;;;;;;;;;;1788876;79;26334;-35
2022/12/21 11:45:17;;;;;;;1.77;0.60;;;;;;;;;;1794382;79;26263;-39
2022/12/21 11:47:46;;;;;;;0.50;0.50;;;;;;;;;;1744836;78;26300;-35
2022/12/21 11:50:17;;;;;;;0.60;0.60;;;;;;;;;;1809049;78;26273;-36
2022/12/21 11:53:04;;;;;;;0.65;0.60;;;;;;;;;;1794508;79;26377;-40
2022/12/21 11:55:51;;;;;;;0.75;0.75;;;;;;;;;;1817057;78;27418;-46
2022/12/21 11:58:29;;;;;;;0.80;0.70;;;;;;;;;;1795976;78;26361;-39
2022/12/21 12:01:07;;;;;;;1.27;0.82;;;;;;;;;;1796406;78;26296;-38
2022/12/21 12:03:36;;;;;;;0.80;0.80;;;;;;;;;;1810211;78;26288;-37
2022/12/21 12:06:20;;;;;;;0.80;0.80;;;;;;;;;;1798203;78;26280;-36
2022/12/21 12:08:51;;;;;;;0.90;0.90;;;;;;;;;;1800234;78;26547;-35
2022/12/21 12:11:35;;;;;;;0.78;0.78;;;;;;;;;;1817296;77;26318;-36
2022/12/21 12:14:13;;;;;;;6.22;1.00;;;;;;;;;;1806167;78;26936;-38
2022/12/21 12:16:51;;;;;;;0.75;0.72;;;;;;;;;;1788576;78;26879;-40
2022/12/21 12:19:23;;;;;;;0.80;0.80;;;;;;;;;;1699939;82;26433;-45
2022/12/21 12:21:55;;;;;;;0.80;0.80;;;;;;;;;;1854350;76;26974;-48
2022/12/21 12:24:30;;;;;;;0.95;0.95;;;;;;;;;;1851641;76;26268;-48
2022/12/21 12:27:11;;;;;;;0.90;0.90;;;;;;;;;;1854595;76;26630;-37
2022/12/21 12:29:40;;;;;;;0.93;0.93;;;;;;;;;;1852451;76;26653;-43
2022/12/21 12:32:15;;;;;;;1.00;0.72;;;;;;;;;;1856226;76;26568;-38
2022/12/21 12:34:43;;;;;;;2.27;0.95;;;;;;;;;;1856397;76;26339;-39
2022/12/21 12:37:15;;;;;;;0.90;0.80;;;;;;;;;;1854797;76;26684;-46
2022/12/21 12:39:50;;;;;;;0.80;0.80;;;;;;;;;;1855590;76;26253;-45
2022/12/21 12:42:21;;;;;;;0.70;0.70;;;;;;;;;;1851449;76;26285;-42
2022/12/21 12:44:50;;;;;;;0.70;0.70;;;;;;;;;;1851208;76;26267;-36
2022/12/21 12:47:22;;;;;;;1.27;0.65;;;;;;;;;;1855134;76;26333;-48
2022/12/21 12:49:51;;;;;;;0.70;0.70;;;;;;;;;;1818931;78;26288;-43
2022/12/21 12:52:37;;;;;;;0.70;0.70;;;;;;;;;;1792159;79;26283;-39
2022/12/21 12:55:09;;;;;;;0.93;0.78;;;;;;;;;;1797618;77;26337;-35
2022/12/21 12:57:50;;;;;;;0.60;0.60;;;;;;;;;;1819516;77;26313;-40
2022/12/21 13:00:18;;;;;;;0.65;0.65;;;;;;;;;;1816489;78;26336;-42
2022/12/21 13:02:52;;;;;;;0.57;0.57;;;;;;;;;;1799139;79;26285;-36
2022/12/21 13:05:27;;;;;;;1.07;0.60;;;;;;;;;;1816377;78;26428;-37
2022/12/21 13:08:13;;;;;;;0.62;0.62;;;;;;;;;;1799101;79;26572;-37
2022/12/21 13:10:42;;;;;;;0.50;0.50;;;;;;;;;;1793164;79;26300;-41
2022/12/21 13:13:19;;;;;;;0.55;0.55;;;;;;;;;;1818897;78;26311;-41
2022/12/21 13:15:48;;;;;;;0.60;0.60;;;;;;;;;;1804729;78;27096;-41
2022/12/21 13:18:19;;;;;;;2.25;0.70;;;;;;;;;;1799012;78;26310;-35
2022/12/21 13:20:48;;;;;;;0.70;0.70;;;;;;;;;;1815253;78;26736;-36
2022/12/21 13:23:16;;;;;;;0.70;0.70;;;;;;;;;;1802786;78;26308;-41
2022/12/21 13:25:48;;;;;;;0.60;0.60;;;;;;;;;;1815479;78;26308;-39
2022/12/21 13:28:23;;;;;;;0.60;0.60;;;;;;;;;;1783298;79;26466;-38
2022/12/21 13:30:51;;;;;;;2.05;0.60;;;;;;;;;;1783002;78;26577;-38
2022/12/21 13:33:20;;;;;;;0.70;0.70;;;;;;;;;;1795937;78;26389;-36
2022/12/21 13:35:58;;;;;;;0.50;0.50;;;;;;;;;;1795477;78;26293;-40
2022/12/21 13:38:30;;;;;;;0.60;0.60;;;;;;;;;;1804359;78;26583;-36
2022/12/21 13:41:02;;;;;;;0.70;0.70;;;;;;;;;;1790556;79;26331;-36
2022/12/21 13:43:33;;;;;;;0.57;0.57;;;;;;;;;;1803351;78;26363;-40
2022/12/21 13:46:05;;;;;;;0.40;0.40;;;;;;;;;;1803053;78;26819;-43
2022/12/21 13:48:34;;;;;;;0.50;0.50;;;;;;;;;;1817511;78;26302;-40
2022/12/21 13:51:06;;;;;;;0.70;0.70;;;;;;;;;;1785503;78;26409;-38
2022/12/21 13:53:35;;;;;;;0.50;0.50;;;;;;;;;;1800420;78;25599;-41
2022/12/21 13:56:04;;;;;;;0.75;0.60;;;;;;;;;;1809401;77;26345;-47
2022/12/21 13:58:36;;;;;;;1.55;0.68;;;;;;;;;;1796004;78;26229;-37
2022/12/21 14:01:23;;;;;;;1.17;0.50;;;;;;;;;;1793728;78;26291;-39
2022/12/21 14:03:52;;;;;;;0.45;0.45;;;;;;;;;;1802205;78;26338;-36
2022/12/21 14:06:25;;;;;;;0.70;0.60;;;;;;;;;;1797132;78;26616;-39
2022/12/21 14:08:56;;;;;;;1.00;0.65;;;;;;;;;;1798188;78;26331;-36
2022/12/21 14:11:42;;;;;;;0.50;0.50;;;;;;;;;;1801640;79;26587;-40
2022/12/21 14:14:13;;;;;;;0.53;0.50;;;;;;;;;;1798008;79;26761;-45
2022/12/21 14:16:41;;;;;;;0.93;0.50;;;;;;;;;;1777592;79;27243;-37
2022/12/21 14:19:15;;;;;;;0.60;0.55;;;;;;;;;;1791608;79;26275;-42
2022/12/21 14:21:47;;;;;;;0.68;0.68;;;;;;;;;;1803116;78;26331;-37
2022/12/21 14:24:16;;;;;;;0.57;0.57;;;;;;;;;;1799239;79;26403;-40
2022/12/21 14:26:54;;;;;;;0.57;0.50;;;;;;;;;;1796964;79;26248;-38
2022/12/21 14:29:22;;;;;;;0.50;0.50;;;;;;;;;;1794558;78;26851;-35
2022/12/21 14:31:51;;;;;;;2.65;0.62;;;;;;;;;;1805060;78;27725;-38
2022/12/21 14:34:20;;;;;;;0.50;0.50;;;;;;;;;;1803231;78;27203;-39
2022/12/21 14:37:07;;;;;;;0.60;0.60;;;;;;;;;;1816153;78;27247;-37
2022/12/21 14:39:36;;;;;;;0.50;0.50;;;;;;;;;;1796242;78;26733;-41
2022/12/21 14:42:21;;;;;;;0.37;0.37;;;;;;;;;;1800056;78;26340;-41
2022/12/21 14:45:06;;;;;;;0.57;0.50;;;;;;;;;;1803401;78;26377;-39
2022/12/21 14:47:34;;;;;;;0.53;0.53;;;;;;;;;;1799283;78;26342;-36
2022/12/21 14:50:21;;;;;;;2.25;0.60;;;;;;;;;;1798738;78;26274;-43
2022/12/21 14:52:59;;;;;;;1.40;0.55;;;;;;;;;;1793900;79;26362;-38
2022/12/21 14:55:31;;;;;;;3.37;0.40;;;;;;;;;;1784456;79;26630;-39
2022/12/21 14:57:59;;;;;;;0.45;0.45;;;;;;;;;;1778610;79;26284;-39
2022/12/21 15:00:28;;;;;;;0.40;0.40;;;;;;;;;;1803054;78;26322;-35
2022/12/21 15:03:12;;;;;;;0.30;0.30;;;;;;;;;;1814073;78;26764;-36
2022/12/21 15:05:41;;;;;;;0.50;0.50;;;;;;;;;;1780446;79;26402;-46